createdAt,value
2022-11-15T00:03:00.297Z,48.58
2022-11-15T00:06:06.104Z,48.77
2022-11-15T00:09:11.825Z,48.54
2022-11-15T00:12:17.731Z,48.45
2022-11-15T00:15:23.763Z,48.50
2022-11-15T00:18:30.749Z,48.74
2022-11-15T00:21:36.710Z,48.78
2022-11-15T00:24:43.695Z,48.70
2022-11-15T00:27:50.457Z,48.48
2022-11-15T00:31:03.743Z,48.44
2022-11-15T00:34:10.635Z,48.58
2022-11-15T00:37:16.520Z,48.65
2022-11-15T00:40:22.460Z,48.76
2022-11-15T00:43:28.708Z,48.75
2022-11-15T00:46:34.785Z,48.60
2022-11-15T00:49:42.006Z,48.79
2022-11-15T00:52:47.939Z,48.81
2022-11-15T00:55:53.841Z,48.60
2022-11-15T00:59:00.021Z,48.78
2022-11-15T01:02:06.141Z,48.81
2022-11-15T01:05:12.477Z,48.89
2022-11-15T01:08:18.567Z,49.01
2022-11-15T01:11:24.738Z,48.97
2022-11-15T01:14:30.743Z,48.86
2022-11-15T01:17:36.835Z,48.75
2022-11-15T01:20:43.451Z,48.73
2022-11-15T01:23:49.619Z,49.02
2022-11-15T01:26:55.520Z,48.90
2022-11-15T01:30:01.722Z,48.88
2022-11-15T01:33:08.168Z,48.65
2022-11-15T01:36:16.930Z,48.89
2022-11-15T01:39:22.910Z,48.62
2022-11-15T01:42:29.072Z,48.91
2022-11-15T01:45:35.216Z,48.76
2022-11-15T01:48:41.640Z,48.89
2022-11-15T01:51:48.274Z,48.88
2022-11-15T01:54:57.555Z,48.89
2022-11-15T01:58:05.504Z,48.71
2022-11-15T02:01:11.621Z,48.90
2022-11-15T02:04:20.308Z,48.87
2022-11-15T02:07:26.405Z,49.03
2022-11-15T02:10:32.404Z,49.08
2022-11-15T02:13:39.480Z,49.08
2022-11-15T02:17:11.916Z,49.35
2022-11-15T02:20:36.723Z,49.34
2022-11-15T02:23:54.493Z,49.33
2022-11-15T02:27:19.335Z,49.42
2022-11-15T02:30:30.048Z,49.50
2022-11-15T02:33:55.858Z,49.50
2022-11-15T02:37:04.662Z,49.46
2022-11-15T02:40:20.223Z,49.45
2022-11-15T02:43:56.696Z,49.53
2022-11-15T02:47:16.451Z,49.57
2022-11-15T02:50:25.506Z,49.42
2022-11-15T02:53:31.474Z,49.67
2022-11-15T02:56:37.488Z,49.55
2022-11-15T02:59:46.050Z,49.65
2022-11-15T03:03:21.588Z,49.84
2022-11-15T03:06:30.233Z,49.69
2022-11-15T03:09:56.270Z,49.69
2022-11-15T03:13:05.207Z,49.71
2022-11-15T03:16:30.276Z,49.82
2022-11-15T03:19:46.851Z,49.71
2022-11-15T03:22:54.527Z,49.82
2022-11-15T03:26:01.873Z,49.92
2022-11-15T03:29:14.697Z,49.82
2022-11-15T03:32:24.031Z,50.00
2022-11-15T03:35:33.812Z,50.02
2022-11-15T03:38:39.951Z,49.78
2022-11-15T03:41:58.468Z,49.83
2022-11-15T03:45:12.419Z,49.95
2022-11-15T03:48:29.353Z,50.10
2022-11-15T03:51:35.086Z,49.84
2022-11-15T03:54:51.007Z,50.04
2022-11-15T03:57:59.564Z,49.83
2022-11-15T04:01:05.935Z,49.65
2022-11-15T04:04:12.339Z,49.69
2022-11-15T04:07:18.682Z,49.60
2022-11-15T04:10:25.098Z,49.59
2022-11-15T04:13:32.071Z,49.75
2022-11-15T04:16:43.529Z,49.84
2022-11-15T04:20:09.401Z,49.81
2022-11-15T04:23:35.669Z,49.71
2022-11-15T04:26:42.945Z,49.74
2022-11-15T04:29:49.669Z,49.94
2022-11-15T04:32:55.807Z,49.97
2022-11-15T04:36:25.573Z,49.96
2022-11-15T04:39:31.212Z,49.71
2022-11-15T04:42:37.149Z,49.96
2022-11-15T04:45:42.979Z,49.79
2022-11-15T04:48:59.263Z,49.86
2022-11-15T04:52:06.271Z,49.96
2022-11-15T04:55:12.765Z,49.90
2022-11-15T04:58:19.024Z,49.78
2022-11-15T05:01:25.458Z,50.11
2022-11-15T05:04:31.955Z,50.06
2022-11-15T05:07:38.341Z,49.93
2022-11-15T05:10:44.506Z,50.18
2022-11-15T05:13:51.151Z,50.10
2022-11-15T05:16:57.525Z,49.94
2022-11-15T05:20:04.326Z,50.05
2022-11-15T05:23:10.520Z,50.09
2022-11-15T05:26:18.602Z,50.01
2022-11-15T05:29:24.569Z,49.76
2022-11-15T05:32:30.615Z,50.07
2022-11-15T05:35:40.250Z,49.82
2022-11-15T05:38:50.910Z,50.09
2022-11-15T05:42:00.994Z,50.27
2022-11-15T05:45:07.740Z,49.96
2022-11-15T05:48:14.811Z,50.28
2022-11-15T05:51:22.231Z,49.91
2022-11-15T05:54:28.206Z,49.92
2022-11-15T05:57:35.287Z,49.98
2022-11-15T06:00:41.567Z,49.94
2022-11-15T06:03:47.659Z,49.95
2022-11-15T06:06:54.004Z,49.87
2022-11-15T06:10:00.211Z,49.86
2022-11-15T06:13:06.343Z,50.01
2022-11-15T06:16:12.422Z,49.59
2022-11-15T06:19:18.788Z,49.73
2022-11-15T06:22:24.963Z,49.81
2022-11-15T06:25:31.661Z,49.83
2022-11-15T06:28:37.986Z,49.79
2022-11-15T06:31:44.062Z,49.67
2022-11-15T06:34:50.016Z,49.63
2022-11-15T06:37:56.095Z,49.89
2022-11-15T06:41:06.377Z,49.74
2022-11-15T06:44:12.248Z,49.99
2022-11-15T06:47:18.332Z,49.81
2022-11-15T06:50:24.464Z,49.93
2022-11-15T06:53:31.193Z,49.75
2022-11-15T06:56:37.489Z,49.91
2022-11-15T06:59:43.515Z,50.26
2022-11-15T07:02:52.184Z,50.10
2022-11-15T07:06:04.220Z,49.95
2022-11-15T07:09:13.130Z,49.85
2022-11-15T07:12:18.976Z,49.67
2022-11-15T07:15:25.658Z,49.64
2022-11-15T07:18:31.635Z,49.68
2022-11-15T07:21:37.753Z,49.67
2022-11-15T07:24:43.928Z,49.79
2022-11-15T07:28:01.685Z,49.86
2022-11-15T07:31:08.715Z,49.80
2022-11-15T07:34:14.419Z,49.99
2022-11-15T07:37:20.314Z,50.19
2022-11-15T07:40:30.200Z,49.76
2022-11-15T07:43:36.495Z,49.78
2022-11-15T07:46:42.268Z,49.73
2022-11-15T07:49:48.386Z,49.67
2022-11-15T07:52:55.081Z,49.84
2022-11-15T07:56:00.967Z,49.79
2022-11-15T07:59:06.824Z,49.92
2022-11-15T08:02:12.912Z,49.87
2022-11-15T08:05:19.032Z,49.75
2022-11-15T08:08:24.867Z,49.97
2022-11-15T08:11:31.096Z,49.82
2022-11-15T08:14:36.996Z,49.69
2022-11-15T08:17:43.257Z,49.98
2022-11-15T08:20:49.230Z,49.91
2022-11-15T08:23:55.108Z,49.71
2022-11-15T08:27:01.341Z,49.87
2022-11-15T08:30:08.441Z,49.52
2022-11-15T08:33:15.076Z,49.54
2022-11-15T08:36:21.247Z,49.24
2022-11-15T08:39:27.288Z,49.27
2022-11-15T08:42:33.515Z,49.09
2022-11-15T08:45:39.762Z,49.45
2022-11-15T08:48:45.943Z,49.48
2022-11-15T08:51:51.871Z,49.49
2022-11-15T08:54:57.588Z,49.47
2022-11-15T08:58:03.518Z,49.22
2022-11-15T09:01:18.662Z,48.79
2022-11-15T09:04:25.079Z,48.87
2022-11-15T09:07:31.830Z,48.70
2022-11-15T09:10:38.321Z,49.13
2022-11-15T09:13:44.472Z,49.30
2022-11-15T09:16:50.492Z,49.40
2022-11-15T09:19:56.518Z,48.85
2022-11-15T09:23:03.276Z,49.05
2022-11-15T09:26:09.545Z,49.07
2022-11-15T09:29:15.695Z,49.15
2022-11-15T09:32:23.300Z,49.29
2022-11-15T09:35:29.557Z,49.01
2022-11-15T09:38:35.983Z,49.06
2022-11-15T09:41:57.787Z,49.01
2022-11-15T09:45:14.270Z,49.11
2022-11-15T09:48:20.350Z,49.35
2022-11-15T09:51:30.943Z,49.17
2022-11-15T09:54:51.469Z,49.16
2022-11-15T09:57:46.176Z,49.10
2022-11-15T10:00:46.385Z,49.36
2022-11-15T10:03:36.380Z,49.34
2022-11-15T10:06:24.977Z,49.38
2022-11-15T10:09:23.878Z,49.40
2022-11-15T10:12:13.851Z,49.32
2022-11-15T10:15:03.711Z,49.46
2022-11-15T10:18:11.347Z,49.55
2022-11-15T10:21:00.977Z,49.41
2022-11-15T10:23:48.880Z,49.50
2022-11-15T10:26:36.400Z,49.54
2022-11-15T10:29:27.230Z,49.61
2022-11-15T10:32:15.949Z,49.55
2022-11-15T10:35:17.151Z,49.65
2022-11-15T10:38:08.725Z,49.56
2022-11-15T10:41:07.135Z,49.87
2022-11-15T10:44:12.513Z,49.75
2022-11-15T10:47:00.060Z,49.74
2022-11-15T10:49:54.754Z,49.78
2022-11-15T10:52:46.502Z,49.71
2022-11-15T10:55:35.120Z,49.80
2022-11-15T10:58:25.512Z,49.68
2022-11-15T11:01:18.093Z,49.82
2022-11-15T11:04:05.723Z,49.83
2022-11-15T11:06:54.479Z,49.78
2022-11-15T11:09:44.687Z,49.75
2022-11-15T11:12:33.841Z,49.90
2022-11-15T11:15:23.645Z,49.78
2022-11-15T11:18:23.160Z,49.58
2022-11-15T11:21:15.599Z,49.93
2022-11-15T11:24:09.458Z,49.75
2022-11-15T11:27:05.822Z,49.82
2022-11-15T11:29:53.296Z,49.92
2022-11-15T11:32:59.689Z,49.71
2022-11-15T11:35:47.125Z,49.70
2022-11-15T11:38:50.990Z,50.06
2022-11-15T11:41:45.129Z,49.97
2022-11-15T11:44:38.761Z,49.99
2022-11-15T11:47:32.187Z,50.17
2022-11-15T11:50:21.062Z,50.27
2022-11-15T11:53:27.262Z,50.21
2022-11-15T11:56:22.692Z,50.26
2022-11-15T11:59:18.916Z,50.13
2022-11-15T12:02:20.116Z,50.26
2022-11-15T12:05:16.928Z,50.58
2022-11-15T12:08:12.451Z,50.70
2022-11-15T12:11:11.425Z,50.66
2022-11-15T12:14:04.699Z,50.85
2022-11-15T12:16:52.175Z,51.15
2022-11-15T12:19:40.532Z,51.24
2022-11-15T12:22:40.026Z,51.15
2022-11-15T12:25:33.530Z,51.38
2022-11-15T12:28:27.910Z,51.38
2022-11-15T12:31:18.136Z,51.78
2022-11-15T12:34:14.969Z,51.89
2022-11-15T12:37:04.666Z,52.14
2022-11-15T12:40:12.505Z,52.21
2022-11-15T12:43:27.803Z,52.44
2022-11-15T12:46:22.634Z,52.62
2022-11-15T12:49:22.277Z,52.75
2022-11-15T12:52:10.347Z,52.72
2022-11-15T12:55:02.054Z,52.87
2022-11-15T12:57:52.453Z,53.00
2022-11-15T13:00:40.256Z,53.05
2022-11-15T13:03:28.638Z,53.18
2022-11-15T13:06:35.741Z,53.45
2022-11-15T13:09:46.468Z,53.44
2022-11-15T13:12:40.008Z,53.70
2022-11-15T13:15:30.618Z,53.64
2022-11-15T13:18:33.082Z,53.93
2022-11-15T13:21:42.471Z,54.20
2022-11-15T13:24:30.786Z,54.38
2022-11-15T13:27:20.558Z,54.61
2022-11-15T13:30:15.463Z,54.57
2022-11-15T13:33:09.538Z,54.70
2022-11-15T13:35:58.936Z,54.85
2022-11-15T13:38:54.675Z,55.11
2022-11-15T13:41:49.377Z,55.32
2022-11-15T13:44:36.790Z,55.28
2022-11-15T13:47:27.856Z,55.33
2022-11-15T13:50:15.742Z,55.38
2022-11-15T13:53:04.733Z,55.67
2022-11-15T13:55:52.843Z,55.93
2022-11-15T13:58:40.889Z,55.93
2022-11-15T14:01:32.013Z,55.88
2022-11-15T14:04:21.400Z,55.97
2022-11-15T14:07:17.217Z,56.07
2022-11-15T14:10:29.195Z,56.11
2022-11-15T14:13:29.992Z,56.07
2022-11-15T14:16:21.903Z,56.20
2022-11-15T14:19:21.402Z,56.20
2022-11-15T14:22:10.499Z,56.24
2022-11-15T14:25:14.107Z,56.35
2022-11-15T14:28:16.513Z,56.58
2022-11-15T14:31:08.036Z,56.52
2022-11-15T14:33:55.614Z,56.66
2022-11-15T14:36:43.038Z,56.71
2022-11-15T14:39:30.518Z,56.84
2022-11-15T14:42:18.495Z,56.71
2022-11-15T14:45:13.675Z,56.55
2022-11-15T14:48:09.969Z,56.72
2022-11-15T14:50:58.461Z,56.71
2022-11-15T14:53:52.626Z,56.83
2022-11-15T14:56:40.334Z,56.90
2022-11-15T14:59:27.988Z,57.05
2022-11-15T15:02:26.355Z,57.18
2022-11-15T15:06:16.579Z,57.06
2022-11-15T15:09:19.839Z,57.19
2022-11-15T15:12:59.808Z,57.34
2022-11-15T15:30:07.282Z,57.88
2022-11-15T16:19:17.504Z,58.46
2022-11-15T16:22:05.211Z,58.38
2022-11-15T16:24:52.685Z,58.63
2022-11-15T16:27:45.813Z,58.66
2022-11-15T16:30:34.513Z,58.60
2022-11-15T16:33:21.993Z,58.84
2022-11-15T16:36:19.276Z,58.85
2022-11-15T16:39:07.523Z,58.99
2022-11-15T16:41:55.102Z,58.88
2022-11-15T16:44:42.506Z,59.00
2022-11-15T16:47:29.884Z,58.93
2022-11-15T16:50:25.286Z,58.84
2022-11-15T16:53:12.880Z,59.03
2022-11-15T16:56:00.359Z,58.93
2022-11-15T16:58:47.817Z,59.00
2022-11-15T17:01:36.609Z,59.33
2022-11-15T17:04:24.234Z,59.09
2022-11-15T17:07:11.822Z,59.18
2022-11-15T17:09:59.352Z,59.18
2022-11-15T17:12:46.851Z,59.25
2022-11-15T17:15:34.221Z,59.37
2022-11-15T17:18:21.592Z,59.38
2022-11-15T17:21:12.210Z,59.36
2022-11-15T17:24:00.063Z,59.34
2022-11-15T17:26:48.802Z,59.39
2022-11-15T17:29:36.606Z,59.50
2022-11-15T17:32:24.281Z,59.65
2022-11-15T17:35:15.645Z,59.73
2022-11-15T17:38:03.391Z,59.64
2022-11-15T17:41:00.193Z,59.88
2022-11-15T17:43:48.307Z,59.83
2022-11-15T17:46:36.479Z,60.21
2022-11-15T17:49:23.873Z,59.99
2022-11-15T17:52:11.382Z,60.08
2022-11-15T17:54:58.786Z,60.29
2022-11-15T17:57:46.203Z,60.16
2022-11-15T18:00:33.971Z,60.06
2022-11-15T18:03:21.371Z,60.05
2022-11-15T18:06:09.468Z,60.03
2022-11-15T18:08:57.226Z,60.05
2022-11-15T18:11:50.555Z,59.95
2022-11-15T18:14:37.997Z,60.04
2022-11-15T18:17:25.665Z,60.16
2022-11-15T18:20:13.254Z,60.24
2022-11-15T18:23:00.650Z,60.07
2022-11-15T18:25:51.530Z,60.28
2022-11-15T18:28:39.888Z,59.95
2022-11-15T18:31:28.288Z,60.10
2022-11-15T18:34:15.654Z,60.26
2022-11-15T18:37:03.476Z,60.21
2022-11-15T18:39:53.860Z,60.38
2022-11-15T18:42:41.566Z,60.39
2022-11-15T18:45:29.232Z,60.45
2022-11-15T18:48:16.634Z,60.51
2022-11-15T18:51:05.493Z,60.57
2022-11-15T18:53:56.986Z,60.74
2022-11-15T18:56:45.651Z,60.54
2022-11-15T18:59:33.118Z,60.63
2022-11-15T19:02:20.570Z,60.73
2022-11-15T19:05:08.222Z,60.72
2022-11-15T19:07:55.606Z,60.71
2022-11-15T19:10:42.966Z,60.96
2022-11-15T19:13:30.657Z,60.95
2022-11-15T19:16:18.267Z,61.03
2022-11-15T19:19:07.945Z,61.05
2022-11-15T19:21:57.193Z,61.09
2022-11-15T19:24:44.569Z,60.88
2022-11-15T19:27:35.611Z,61.24
2022-11-15T19:30:25.420Z,61.22
2022-11-15T19:33:12.783Z,61.32
2022-11-15T19:36:02.909Z,61.48
2022-11-15T19:38:50.439Z,61.27
2022-11-15T19:41:38.667Z,61.27
2022-11-15T19:44:27.315Z,61.36
2022-11-15T19:47:14.663Z,61.41
2022-11-15T19:50:02.106Z,61.39
2022-11-15T19:52:51.389Z,61.10
2022-11-15T19:55:38.857Z,61.08
2022-11-15T19:58:28.150Z,61.26
2022-11-15T20:01:23.291Z,61.31
2022-11-15T20:04:10.721Z,61.18
2022-11-15T20:06:58.145Z,61.32
2022-11-15T20:09:45.615Z,61.50
2022-11-15T20:12:33.000Z,61.27
2022-11-15T20:15:20.765Z,61.65
2022-11-15T20:18:09.017Z,61.62
2022-11-15T20:20:59.733Z,61.46
2022-11-15T20:23:47.864Z,61.39
2022-11-15T20:26:35.700Z,61.76
2022-11-15T20:29:23.501Z,61.81
2022-11-15T20:32:11.598Z,61.95
2022-11-15T20:34:58.968Z,61.91
2022-11-15T20:37:46.365Z,61.71
2022-11-15T20:40:34.122Z,61.67
2022-11-15T20:43:21.521Z,61.80
2022-11-15T20:46:09.651Z,61.65
2022-11-15T20:48:57.104Z,61.76
2022-11-15T20:51:44.438Z,61.81
2022-11-15T20:54:31.813Z,62.01
2022-11-15T20:57:19.184Z,61.98
2022-11-15T21:00:07.098Z,61.99
2022-11-15T21:02:54.459Z,61.75
2022-11-15T21:05:42.731Z,61.81
2022-11-15T21:08:50.150Z,61.60
2022-11-15T21:11:56.068Z,61.88
2022-11-15T21:14:48.999Z,61.86
2022-11-15T21:17:36.465Z,61.76
2022-11-15T21:20:23.863Z,62.03
2022-11-15T21:23:11.870Z,62.09
2022-11-15T21:25:59.436Z,61.87
2022-11-15T21:28:46.786Z,61.96
2022-11-15T21:31:34.246Z,61.77
2022-11-15T21:34:21.737Z,61.81
2022-11-15T21:37:10.607Z,61.87
2022-11-15T21:39:57.970Z,61.64
2022-11-15T21:42:45.447Z,61.90
2022-11-15T21:45:32.841Z,61.87
2022-11-15T21:48:20.210Z,61.91
2022-11-15T21:51:10.029Z,61.76
2022-11-15T21:53:57.649Z,61.90
2022-11-15T21:56:45.092Z,61.93
2022-11-15T21:59:32.516Z,62.10
2022-11-15T22:02:21.263Z,62.06
2022-11-15T22:05:08.836Z,62.19
2022-11-15T22:07:56.271Z,62.27
2022-11-15T22:10:46.689Z,62.13
2022-11-15T22:13:34.217Z,62.32
2022-11-15T22:16:21.779Z,62.34
2022-11-15T22:19:09.313Z,62.27
2022-11-15T22:21:57.058Z,62.35
2022-11-15T22:24:44.623Z,62.51
2022-11-15T22:27:32.134Z,62.32
2022-11-15T22:30:19.975Z,62.14
2022-11-15T22:33:07.705Z,62.38
2022-11-15T22:35:55.336Z,62.27
2022-11-15T22:38:42.857Z,62.61
2022-11-15T22:41:30.369Z,62.48
2022-11-15T22:44:17.858Z,62.39
2022-11-15T22:47:05.471Z,62.36
2022-11-15T22:49:52.989Z,62.25
2022-11-15T22:52:40.500Z,62.27
2022-11-15T22:55:27.948Z,62.46
2022-11-15T22:58:15.447Z,62.47
2022-11-15T23:01:04.255Z,62.36
2022-11-15T23:03:51.825Z,62.54
2022-11-15T23:06:39.332Z,62.48
2022-11-15T23:09:26.971Z,62.40
2022-11-15T23:12:33.012Z,62.58
2022-11-15T23:15:20.452Z,62.81
2022-11-15T23:18:07.958Z,63.00
2022-11-15T23:20:55.633Z,62.95
2022-11-15T23:23:43.096Z,63.05
2022-11-15T23:26:31.010Z,63.07
2022-11-15T23:29:19.786Z,63.18
2022-11-15T23:32:26.167Z,63.13
2022-11-15T23:35:13.641Z,63.11
2022-11-15T23:38:01.193Z,63.05
2022-11-15T23:40:52.174Z,63.19
2022-11-15T23:43:39.692Z,63.15
2022-11-15T23:46:27.504Z,63.03
2022-11-15T23:49:14.942Z,63.16
2022-11-15T23:52:02.478Z,62.95
2022-11-15T23:54:50.188Z,62.87
2022-11-15T23:57:37.702Z,62.94
